createdAt,value
2022-11-15T00:10:41.976Z,6.93
2022-11-15T00:16:05.408Z,6.72
2022-11-15T00:21:26.754Z,6.97
2022-11-15T00:26:47.847Z,6.47
2022-11-15T00:32:10.503Z,6.40
2022-11-15T00:37:32.037Z,6.35
2022-11-15T00:42:53.411Z,6.75
2022-11-15T00:48:16.115Z,6.75
2022-11-15T00:53:37.414Z,7.25
2022-11-15T00:58:59.238Z,7.13
2022-11-15T01:04:22.116Z,6.60
2022-11-15T01:09:43.295Z,7.10
2022-11-15T01:15:05.147Z,6.32
2022-11-15T01:20:27.865Z,7.30
2022-11-15T01:31:13.942Z,6.68
2022-11-15T01:36:36.511Z,6.93
2022-11-15T01:41:58.033Z,6.68
2022-11-15T01:47:22.147Z,6.93
2022-11-15T01:52:45.557Z,8.10
2022-11-15T01:58:09.218Z,8.38
2022-11-15T02:03:38.999Z,8.82
2022-11-15T02:09:02.467Z,9.32
2022-11-15T02:14:25.997Z,8.85
2022-11-15T02:20:27.865Z,8.70
2022-11-15T02:26:08.526Z,9.65
2022-11-15T02:31:38.975Z,10.18
2022-11-15T02:37:05.868Z,9.73
2022-11-15T02:42:49.008Z,10.90
2022-11-15T02:48:13.406Z,10.18
2022-11-15T02:53:34.799Z,10.38
2022-11-15T02:59:13.641Z,11.30
2022-11-15T03:04:45.219Z,11.82
2022-11-15T03:10:11.982Z,10.95
2022-11-15T03:15:39.071Z,10.82
2022-11-15T03:21:04.624Z,10.38
2022-11-15T03:26:27.627Z,11.60
2022-11-15T03:31:53.450Z,13.57
2022-11-15T03:37:19.407Z,13.15
2022-11-15T03:42:45.736Z,13.48
2022-11-15T03:48:14.715Z,12.55
2022-11-15T03:53:37.146Z,14.55
2022-11-15T03:58:58.323Z,13.00
2022-11-15T04:04:19.688Z,14.10
2022-11-15T04:09:56.107Z,14.10
2022-11-15T04:15:19.483Z,13.38
2022-11-15T04:20:58.195Z,14.00
2022-11-15T04:26:23.075Z,14.20
2022-11-15T04:31:44.259Z,14.10
2022-11-15T04:37:14.138Z,15.23
2022-11-15T04:42:36.848Z,14.82
2022-11-15T04:47:58.006Z,13.45
2022-11-15T04:53:19.197Z,14.45
2022-11-15T04:58:41.625Z,14.40
2022-11-15T05:04:20.106Z,14.95
2022-11-15T05:09:41.595Z,15.55
2022-11-15T05:15:04.489Z,14.48
2022-11-15T05:25:47.035Z,16.95
2022-11-15T05:31:11.135Z,15.50
2022-11-15T05:36:37.594Z,15.18
2022-11-15T05:42:04.020Z,13.52
2022-11-15T05:47:29.753Z,14.63
2022-11-15T05:52:53.264Z,14.82
2022-11-15T05:58:14.511Z,14.27
2022-11-15T06:03:37.230Z,14.30
2022-11-15T06:08:58.326Z,13.13
2022-11-15T06:14:19.734Z,14.13
2022-11-15T06:19:42.252Z,13.63
2022-11-15T06:25:05.590Z,13.40
2022-11-15T06:30:28.429Z,12.00
2022-11-15T06:35:50.871Z,12.80
2022-11-15T06:41:13.078Z,12.40
2022-11-15T06:46:34.220Z,11.07
2022-11-15T06:51:56.871Z,11.35
2022-11-15T06:57:18.176Z,11.27
2022-11-15T07:02:39.307Z,11.07
2022-11-15T07:08:02.571Z,11.35
2022-11-15T07:13:26.884Z,10.88
2022-11-15T07:18:48.335Z,10.52
2022-11-15T07:24:11.147Z,5.03
2022-11-15T07:29:32.257Z,6.07
2022-11-15T07:34:53.410Z,7.47
2022-11-15T07:40:16.401Z,5.90
2022-11-15T07:45:43.251Z,8.23
2022-11-15T07:51:06.804Z,8.57
2022-11-15T07:56:31.635Z,7.63
2022-11-15T08:01:53.319Z,7.95
2022-11-15T08:07:14.764Z,6.70
2022-11-15T08:12:37.335Z,5.82
2022-11-15T08:17:59.417Z,4.53
2022-11-15T08:23:20.764Z,3.85
2022-11-15T08:28:43.511Z,3.72
2022-11-15T08:34:05.267Z,3.25
2022-11-15T08:39:26.751Z,3.73
2022-11-15T08:44:49.524Z,3.33
2022-11-15T08:50:11.334Z,2.60
2022-11-15T08:55:32.543Z,2.95
2022-11-15T09:00:55.001Z,2.40
2022-11-15T09:06:16.784Z,2.47
2022-11-15T09:11:38.468Z,1.83
2022-11-15T09:17:01.531Z,2.85
2022-11-15T09:22:23.529Z,2.85
2022-11-15T09:27:44.778Z,2.67
2022-11-15T09:33:11.010Z,2.08
2022-11-15T09:38:33.247Z,2.30
2022-11-15T09:44:06.905Z,2.25
2022-11-15T09:49:31.427Z,2.20
2022-11-15T09:54:54.240Z,1.80
2022-11-15T10:05:31.467Z,1.73
2022-11-15T10:10:39.752Z,1.58
2022-11-15T10:15:46.292Z,2.75
2022-11-15T10:20:54.993Z,1.90
2022-11-15T10:26:06.373Z,1.42
2022-11-15T10:31:24.264Z,1.60
2022-11-15T10:36:29.486Z,1.35
2022-11-15T10:41:36.896Z,1.45
2022-11-15T10:46:49.104Z,0.93
2022-11-15T10:51:55.819Z,1.00
2022-11-15T10:57:01.450Z,2.08
2022-11-15T11:02:04.291Z,1.00
2022-11-15T11:07:22.384Z,0.75
2022-11-15T11:12:31.059Z,1.10
2022-11-15T11:17:51.876Z,1.10
2022-11-15T11:23:04.944Z,1.20
2022-11-15T11:28:27.841Z,1.00
2022-11-15T11:33:34.471Z,1.20
2022-11-15T11:38:55.976Z,1.20
2022-11-15T11:44:10.642Z,1.17
2022-11-15T11:49:19.751Z,1.17
2022-11-15T11:54:32.358Z,1.65
2022-11-15T11:59:42.041Z,1.60
2022-11-15T12:04:50.027Z,1.35
2022-11-15T12:09:59.890Z,1.90
2022-11-15T12:15:05.337Z,1.20
2022-11-15T12:20:18.625Z,1.95
2022-11-15T12:25:25.732Z,1.40
2022-11-15T12:30:42.148Z,1.30
2022-11-15T12:35:46.190Z,1.50
2022-11-15T12:41:18.950Z,1.10
2022-11-15T12:52:09.475Z,0.98
2022-11-15T12:57:31.405Z,1.30
2022-11-15T13:02:38.023Z,1.13
2022-11-15T13:07:59.887Z,1.38
2022-11-15T13:13:04.136Z,1.17
2022-11-15T13:18:32.917Z,0.95
2022-11-15T13:23:35.947Z,1.02
2022-11-15T13:28:40.988Z,1.30
2022-11-15T13:33:46.084Z,1.30
2022-11-15T13:38:57.678Z,1.40
2022-11-15T13:44:02.034Z,2.00
2022-11-15T13:49:07.899Z,1.83
2022-11-15T13:54:21.477Z,1.98
2022-11-15T13:59:27.568Z,2.22
2022-11-15T14:04:34.791Z,2.30
2022-11-15T14:09:39.113Z,2.30
2022-11-15T14:14:47.517Z,2.10
2022-11-15T14:19:52.739Z,2.15
2022-11-15T14:25:17.271Z,2.13
2022-11-15T14:30:20.247Z,2.60
2022-11-15T14:35:25.714Z,2.80
2022-11-15T14:40:28.490Z,2.60
2022-11-15T14:45:31.320Z,2.63
2022-11-15T14:50:36.862Z,3.20
2022-11-15T14:55:39.859Z,2.67
2022-11-15T15:00:43.691Z,2.35
2022-11-15T15:05:47.888Z,2.15
2022-11-15T15:10:50.684Z,2.70
2022-11-15T15:15:54.211Z,1.98
2022-11-15T15:21:03.848Z,2.05
2022-11-15T15:26:06.620Z,2.08
2022-11-15T15:31:10.502Z,2.30
2022-11-15T15:36:16.401Z,2.00
2022-11-15T15:41:19.309Z,5.88
2022-11-15T15:46:22.472Z,2.60
2022-11-15T15:51:26.660Z,2.42
2022-11-15T15:56:29.477Z,2.58
2022-11-15T16:01:32.361Z,2.22
2022-11-15T16:06:40.206Z,2.10
2022-11-15T16:11:43.237Z,1.90
2022-11-15T16:16:45.957Z,2.20
2022-11-15T16:21:50.133Z,1.90
2022-11-15T16:26:53.895Z,2.00
2022-11-15T16:31:56.859Z,2.08
2022-11-15T16:37:01.423Z,1.60
2022-11-15T16:42:04.394Z,2.17
2022-11-15T16:47:07.204Z,2.03
2022-11-15T16:52:11.417Z,2.22
2022-11-15T16:57:14.220Z,2.28
2022-11-15T17:02:17.291Z,2.70
2022-11-15T17:07:21.521Z,2.60
2022-11-15T17:12:24.351Z,3.53
2022-11-15T17:17:27.429Z,3.45
2022-11-15T17:22:32.541Z,3.50
2022-11-15T17:27:35.303Z,3.35
2022-11-15T17:42:45.210Z,3.10
2022-11-15T17:47:48.004Z,3.42
2022-11-15T17:52:52.117Z,2.67
2022-11-15T17:57:54.972Z,2.50
2022-11-15T18:02:58.115Z,2.38
2022-11-15T18:08:02.252Z,2.85
2022-11-15T18:13:05.284Z,2.65
2022-11-15T18:18:08.079Z,2.95
2022-11-15T18:23:12.287Z,2.60
2022-11-15T18:28:15.124Z,3.17
2022-11-15T18:33:18.884Z,3.17
2022-11-15T18:38:23.002Z,3.40
2022-11-15T18:43:25.950Z,2.97
2022-11-15T18:48:30.530Z,3.17
2022-11-15T18:53:36.457Z,2.88
2022-11-15T18:58:41.627Z,3.10
2022-11-15T19:03:47.004Z,2.72
2022-11-15T19:08:54.590Z,2.78
2022-11-15T19:13:59.632Z,3.10
2022-11-15T19:19:04.776Z,2.45
2022-11-15T19:24:10.332Z,2.53
2022-11-15T19:29:13.798Z,2.42
2022-11-15T19:34:17.811Z,2.22
2022-11-15T19:39:21.931Z,2.65
2022-11-15T19:44:26.315Z,2.42
2022-11-15T19:49:29.148Z,2.83
2022-11-15T19:54:33.304Z,3.17
2022-11-15T19:59:36.094Z,3.30
2022-11-15T20:04:38.871Z,3.47
2022-11-15T20:09:43.613Z,3.47
2022-11-15T20:14:46.660Z,4.22
2022-11-15T20:19:49.442Z,4.18
2022-11-15T20:24:53.819Z,4.45
2022-11-15T20:29:56.668Z,3.67
2022-11-15T20:34:59.443Z,4.45
2022-11-15T20:40:03.897Z,3.45
2022-11-15T20:45:07.871Z,3.28
2022-11-15T20:50:40.595Z,3.92
2022-11-15T20:55:35.250Z,3.80
2022-11-15T21:00:38.358Z,3.90
2022-11-15T21:05:43.677Z,3.65
2022-11-15T21:11:09.265Z,4.00
2022-11-15T21:16:12.072Z,4.03
2022-11-15T21:21:15.290Z,3.25
2022-11-15T21:26:19.505Z,3.33
2022-11-15T21:31:22.898Z,2.85
2022-11-15T21:36:26.033Z,2.75
2022-11-15T21:41:30.134Z,2.80
2022-11-15T21:46:33.359Z,2.97
2022-11-15T21:51:36.433Z,3.72
2022-11-15T21:56:41.721Z,3.50
2022-11-15T22:02:03.230Z,4.30
2022-11-15T22:07:06.095Z,3.60
2022-11-15T22:12:10.249Z,4.00
2022-11-15T22:17:13.148Z,3.35
2022-11-15T22:22:16.068Z,3.65
2022-11-15T22:27:20.214Z,4.35
2022-11-15T22:32:23.223Z,4.50
2022-11-15T22:37:26.069Z,4.22
2022-11-15T22:42:30.280Z,3.47
2022-11-15T22:47:33.135Z,3.50
2022-11-15T22:52:36.086Z,3.60
2022-11-15T22:57:40.288Z,3.08
2022-11-15T23:02:43.428Z,3.92
2022-11-15T23:07:46.233Z,3.42
2022-11-15T23:13:07.878Z,2.88
2022-11-15T23:18:10.729Z,3.63
2022-11-15T23:23:14.403Z,3.38
2022-11-15T23:28:18.617Z,3.75
2022-11-15T23:33:39.235Z,3.50
2022-11-15T23:38:42.638Z,3.45
2022-11-15T23:43:46.927Z,3.47
2022-11-15T23:48:49.729Z,3.83
2022-11-15T23:53:52.642Z,4.00
2022-11-15T23:58:56.874Z,4.28
